sensor_id;sensor_type;location;lat;lon;timestamp;P1;durP1;ratioP1;P2;durP2;ratioP2
8268;SDS011;4174;48.304;16.364;2023-08-17T00:04:25;3.10;;;0.90;;
8268;SDS011;4174;48.304;16.364;2023-08-17T00:10:29;2.93;;;0.93;;
8268;SDS011;4174;48.304;16.364;2023-08-17T00:16:32;3.07;;;0.70;;
8268;SDS011;4174;48.304;16.364;2023-08-17T00:22:36;2.50;;;0.80;;
8268;SDS011;4174;48.304;16.364;2023-08-17T00:28:40;3.03;;;0.80;;
8268;SDS011;4174;48.304;16.364;2023-08-17T00:34:44;2.85;;;1.00;;
8268;SDS011;4174;48.304;16.364;2023-08-17T00:40:48;6.07;;;0.77;;
8268;SDS011;4174;48.304;16.364;2023-08-17T00:46:50;2.80;;;0.90;;
8268;SDS011;4174;48.304;16.364;2023-08-17T00:52:53;3.30;;;1.03;;
8268;SDS011;4174;48.304;16.364;2023-08-17T00:58:56;3.50;;;1.25;;
8268;SDS011;4174;48.304;16.364;2023-08-17T01:05:00;2.70;;;0.80;;
8268;SDS011;4174;48.304;16.364;2023-08-17T01:17:33;3.20;;;0.80;;
8268;SDS011;4174;48.304;16.364;2023-08-17T01:23:34;3.15;;;1.23;;
8268;SDS011;4174;48.304;16.364;2023-08-17T01:29:36;3.42;;;1.02;;
8268;SDS011;4174;48.304;16.364;2023-08-17T01:35:46;3.05;;;0.88;;
8268;SDS011;4174;48.304;16.364;2023-08-17T01:41:50;3.22;;;1.12;;
8268;SDS011;4174;48.304;16.364;2023-08-17T01:47:53;3.00;;;1.10;;
8268;SDS011;4174;48.304;16.364;2023-08-17T01:53:56;2.87;;;0.90;;
8268;SDS011;4174;48.304;16.364;2023-08-17T02:00:00;3.80;;;1.62;;
8268;SDS011;4174;48.304;16.364;2023-08-17T02:06:03;3.12;;;0.75;;
8268;SDS011;4174;48.304;16.364;2023-08-17T02:12:06;2.80;;;0.90;;
8268;SDS011;4174;48.304;16.364;2023-08-17T02:18:11;3.10;;;1.10;;
8268;SDS011;4174;48.304;16.364;2023-08-17T02:24:14;3.25;;;1.00;;
8268;SDS011;4174;48.304;16.364;2023-08-17T02:30:18;4.50;;;1.17;;
8268;SDS011;4174;48.304;16.364;2023-08-17T02:36:22;3.70;;;1.33;;
8268;SDS011;4174;48.304;16.364;2023-08-17T02:42:25;4.03;;;1.23;;
8268;SDS011;4174;48.304;16.364;2023-08-17T02:48:29;4.25;;;1.12;;
8268;SDS011;4174;48.304;16.364;2023-08-17T02:54:33;3.60;;;1.20;;
8268;SDS011;4174;48.304;16.364;2023-08-17T03:00:36;3.50;;;1.20;;
8268;SDS011;4174;48.304;16.364;2023-08-17T03:06:40;3.30;;;1.20;;
8268;SDS011;4174;48.304;16.364;2023-08-17T03:12:45;3.00;;;0.90;;
8268;SDS011;4174;48.304;16.364;2023-08-17T03:18:50;4.45;;;1.05;;
8268;SDS011;4174;48.304;16.364;2023-08-17T03:24:55;3.15;;;0.90;;
8268;SDS011;4174;48.304;16.364;2023-08-17T03:30:58;3.87;;;1.10;;
8268;SDS011;4174;48.304;16.364;2023-08-17T03:37:01;2.87;;;0.93;;
8268;SDS011;4174;48.304;16.364;2023-08-17T03:43:04;3.63;;;1.00;;
8268;SDS011;4174;48.304;16.364;2023-08-17T03:49:09;3.37;;;1.13;;
8268;SDS011;4174;48.304;16.364;2023-08-17T03:55:13;3.83;;;1.33;;
8268;SDS011;4174;48.304;16.364;2023-08-17T04:01:18;3.58;;;1.15;;
8268;SDS011;4174;48.304;16.364;2023-08-17T04:07:22;3.17;;;1.02;;
8268;SDS011;4174;48.304;16.364;2023-08-17T04:13:26;2.73;;;0.80;;
8268;SDS011;4174;48.304;16.364;2023-08-17T04:19:30;3.62;;;1.20;;
8268;SDS011;4174;48.304;16.364;2023-08-17T04:25:34;2.85;;;0.90;;
8268;SDS011;4174;48.304;16.364;2023-08-17T04:31:38;3.07;;;1.17;;
8268;SDS011;4174;48.304;16.364;2023-08-17T04:37:41;3.60;;;1.00;;
8268;SDS011;4174;48.304;16.364;2023-08-17T04:43:45;2.95;;;0.90;;
8268;SDS011;4174;48.304;16.364;2023-08-17T04:49:48;3.33;;;1.27;;
8268;SDS011;4174;48.304;16.364;2023-08-17T04:55:52;3.45;;;1.00;;
8268;SDS011;4174;48.304;16.364;2023-08-17T05:01:57;3.63;;;1.30;;
8268;SDS011;4174;48.304;16.364;2023-08-17T05:08:00;3.90;;;1.50;;
8268;SDS011;4174;48.304;16.364;2023-08-17T05:14:03;3.22;;;1.15;;
8268;SDS011;4174;48.304;16.364;2023-08-17T05:20:06;3.00;;;1.00;;
8268;SDS011;4174;48.304;16.364;2023-08-17T05:26:11;4.60;;;1.20;;
8268;SDS011;4174;48.304;16.364;2023-08-17T05:32:15;4.37;;;1.63;;
8268;SDS011;4174;48.304;16.364;2023-08-17T05:38:18;3.97;;;1.37;;
8268;SDS011;4174;48.304;16.364;2023-08-17T05:44:22;3.10;;;1.27;;
8268;SDS011;4174;48.304;16.364;2023-08-17T05:50:27;6.50;;;1.65;;
8268;SDS011;4174;48.304;16.364;2023-08-17T05:56:31;4.05;;;1.65;;
8268;SDS011;4174;48.304;16.364;2023-08-17T06:02:34;4.30;;;1.50;;
8268;SDS011;4174;48.304;16.364;2023-08-17T06:08:39;4.07;;;1.30;;
8268;SDS011;4174;48.304;16.364;2023-08-17T06:14:43;5.22;;;2.15;;
8268;SDS011;4174;48.304;16.364;2023-08-17T06:20:47;4.13;;;1.67;;
8268;SDS011;4174;48.304;16.364;2023-08-17T06:26:51;4.47;;;1.80;;
8268;SDS011;4174;48.304;16.364;2023-08-17T06:32:54;4.97;;;1.60;;
8268;SDS011;4174;48.304;16.364;2023-08-17T06:38:58;8.40;;;2.13;;
8268;SDS011;4174;48.304;16.364;2023-08-17T06:45:01;4.00;;;1.40;;
8268;SDS011;4174;48.304;16.364;2023-08-17T06:51:04;3.87;;;1.50;;
8268;SDS011;4174;48.304;16.364;2023-08-17T06:57:07;4.27;;;1.53;;
8268;SDS011;4174;48.304;16.364;2023-08-17T07:03:11;4.40;;;1.70;;
8268;SDS011;4174;48.304;16.364;2023-08-17T07:09:15;3.30;;;1.25;;
8268;SDS011;4174;48.304;16.364;2023-08-17T07:15:19;4.97;;;1.90;;
8268;SDS011;4174;48.304;16.364;2023-08-17T07:21:23;20.33;;;7.60;;
8268;SDS011;4174;48.304;16.364;2023-08-17T07:27:27;3.77;;;1.40;;
8268;SDS011;4174;48.304;16.364;2023-08-17T07:33:30;16.50;;;8.82;;
8268;SDS011;4174;48.304;16.364;2023-08-17T07:39:34;15.85;;;8.80;;
8268;SDS011;4174;48.304;16.364;2023-08-17T07:45:38;16.60;;;9.40;;
8268;SDS011;4174;48.304;16.364;2023-08-17T07:51:42;16.00;;;9.50;;
8268;SDS011;4174;48.304;16.364;2023-08-17T07:57:46;14.70;;;8.77;;
8268;SDS011;4174;48.304;16.364;2023-08-17T08:03:49;14.45;;;8.65;;
8268;SDS011;4174;48.304;16.364;2023-08-17T08:09:54;15.97;;;8.80;;
8268;SDS011;4174;48.304;16.364;2023-08-17T08:15:58;16.83;;;9.75;;
8268;SDS011;4174;48.304;16.364;2023-08-17T08:22:02;17.70;;;9.95;;
8268;SDS011;4174;48.304;16.364;2023-08-17T08:28:06;18.40;;;10.02;;
8268;SDS011;4174;48.304;16.364;2023-08-17T08:34:09;19.00;;;9.70;;
8268;SDS011;4174;48.304;16.364;2023-08-17T08:40:13;18.23;;;9.70;;
8268;SDS011;4174;48.304;16.364;2023-08-17T08:46:16;17.23;;;9.10;;
8268;SDS011;4174;48.304;16.364;2023-08-17T08:52:19;16.17;;;9.23;;
8268;SDS011;4174;48.304;16.364;2023-08-17T08:58:21;16.75;;;9.32;;
8268;SDS011;4174;48.304;16.364;2023-08-17T09:04:25;15.55;;;9.00;;
8268;SDS011;4174;48.304;16.364;2023-08-17T09:10:29;14.43;;;8.70;;
8268;SDS011;4174;48.304;16.364;2023-08-17T09:16:32;14.07;;;8.40;;
8268;SDS011;4174;48.304;16.364;2023-08-17T09:22:40;16.73;;;8.73;;
8268;SDS011;4174;48.304;16.364;2023-08-17T09:28:42;15.63;;;9.23;;
8268;SDS011;4174;48.304;16.364;2023-08-17T09:34:46;16.30;;;8.82;;
8268;SDS011;4174;48.304;16.364;2023-08-17T09:40:50;14.32;;;8.43;;
8268;SDS011;4174;48.304;16.364;2023-08-17T09:46:55;13.75;;;8.40;;
8268;SDS011;4174;48.304;16.364;2023-08-17T09:52:58;14.05;;;8.10;;
8268;SDS011;4174;48.304;16.364;2023-08-17T09:59:02;15.97;;;8.00;;
8268;SDS011;4174;48.304;16.364;2023-08-17T10:05:05;13.33;;;7.60;;
8268;SDS011;4174;48.304;16.364;2023-08-17T10:11:09;15.65;;;7.00;;
8268;SDS011;4174;48.304;16.364;2023-08-17T10:17:11;13.10;;;6.60;;
8268;SDS011;4174;48.304;16.364;2023-08-17T10:23:15;10.83;;;5.80;;
8268;SDS011;4174;48.304;16.364;2023-08-17T10:29:17;12.48;;;6.03;;
8268;SDS011;4174;48.304;16.364;2023-08-17T10:35:20;11.48;;;6.00;;
8268;SDS011;4174;48.304;16.364;2023-08-17T10:41:23;10.35;;;6.32;;
8268;SDS011;4174;48.304;16.364;2023-08-17T10:47:28;11.50;;;6.18;;
8268;SDS011;4174;48.304;16.364;2023-08-17T10:53:33;13.57;;;6.27;;
8268;SDS011;4174;48.304;16.364;2023-08-17T10:59:36;10.68;;;5.90;;
8268;SDS011;4174;48.304;16.364;2023-08-17T11:05:41;10.52;;;5.20;;
8268;SDS011;4174;48.304;16.364;2023-08-17T11:11:52;9.90;;;5.10;;
8268;SDS011;4174;48.304;16.364;2023-08-17T11:17:54;10.85;;;4.60;;
8268;SDS011;4174;48.304;16.364;2023-08-17T11:23:58;8.33;;;4.43;;
8268;SDS011;4174;48.304;16.364;2023-08-17T11:30:00;8.83;;;4.80;;
8268;SDS011;4174;48.304;16.364;2023-08-17T11:36:05;11.23;;;5.10;;
8268;SDS011;4174;48.304;16.364;2023-08-17T11:42:08;8.90;;;4.60;;
8268;SDS011;4174;48.304;16.364;2023-08-17T11:48:11;8.60;;;4.37;;
8268;SDS011;4174;48.304;16.364;2023-08-17T11:54:14;8.23;;;4.30;;
8268;SDS011;4174;48.304;16.364;2023-08-17T12:00:19;10.37;;;4.57;;
8268;SDS011;4174;48.304;16.364;2023-08-17T12:06:20;10.63;;;4.80;;
8268;SDS011;4174;48.304;16.364;2023-08-17T12:12:24;7.97;;;4.50;;
8268;SDS011;4174;48.304;16.364;2023-08-17T12:18:27;8.80;;;4.30;;
8268;SDS011;4174;48.304;16.364;2023-08-17T12:24:33;9.33;;;4.73;;
8268;SDS011;4174;48.304;16.364;2023-08-17T12:30:37;10.90;;;4.62;;
8268;SDS011;4174;48.304;16.364;2023-08-17T12:36:42;11.30;;;4.93;;
8268;SDS011;4174;48.304;16.364;2023-08-17T12:42:43;9.33;;;5.00;;
8268;SDS011;4174;48.304;16.364;2023-08-17T12:48:47;11.50;;;5.30;;
8268;SDS011;4174;48.304;16.364;2023-08-17T12:54:51;10.10;;;4.95;;
8268;SDS011;4174;48.304;16.364;2023-08-17T13:00:55;7.95;;;4.70;;
8268;SDS011;4174;48.304;16.364;2023-08-17T13:06:59;8.63;;;4.40;;
8268;SDS011;4174;48.304;16.364;2023-08-17T13:13:03;10.87;;;4.90;;
8268;SDS011;4174;48.304;16.364;2023-08-17T13:19:06;9.48;;;4.72;;
8268;SDS011;4174;48.304;16.364;2023-08-17T13:25:10;10.25;;;4.62;;
8268;SDS011;4174;48.304;16.364;2023-08-17T13:31:14;7.60;;;4.30;;
8268;SDS011;4174;48.304;16.364;2023-08-17T13:37:17;9.83;;;4.40;;
8268;SDS011;4174;48.304;16.364;2023-08-17T13:43:21;8.47;;;4.03;;
8268;SDS011;4174;48.304;16.364;2023-08-17T13:49:25;9.45;;;4.25;;
8268;SDS011;4174;48.304;16.364;2023-08-17T13:55:30;7.80;;;4.03;;
8268;SDS011;4174;48.304;16.364;2023-08-17T14:01:33;10.17;;;4.20;;
8268;SDS011;4174;48.304;16.364;2023-08-17T14:07:37;8.18;;;4.30;;
8268;SDS011;4174;48.304;16.364;2023-08-17T14:13:42;8.73;;;4.30;;
8268;SDS011;4174;48.304;16.364;2023-08-17T14:19:46;9.82;;;4.50;;
8268;SDS011;4174;48.304;16.364;2023-08-17T14:25:50;10.60;;;4.20;;
8268;SDS011;4174;48.304;16.364;2023-08-17T14:31:54;8.27;;;4.10;;
8268;SDS011;4174;48.304;16.364;2023-08-17T14:37:57;10.20;;;4.90;;
8268;SDS011;4174;48.304;16.364;2023-08-17T14:44:01;11.07;;;5.30;;
8268;SDS011;4174;48.304;16.364;2023-08-17T14:50:05;8.00;;;4.60;;
8268;SDS011;4174;48.304;16.364;2023-08-17T14:56:09;8.80;;;4.40;;
8268;SDS011;4174;48.304;16.364;2023-08-17T15:02:13;10.07;;;4.20;;
8268;SDS011;4174;48.304;16.364;2023-08-17T15:08:17;8.30;;;4.20;;
8268;SDS011;4174;48.304;16.364;2023-08-17T15:14:19;8.00;;;4.53;;
8268;SDS011;4174;48.304;16.364;2023-08-17T15:20:23;7.93;;;3.90;;
8268;SDS011;4174;48.304;16.364;2023-08-17T15:26:27;10.55;;;5.10;;
8268;SDS011;4174;48.304;16.364;2023-08-17T15:32:31;11.32;;;5.18;;
8268;SDS011;4174;48.304;16.364;2023-08-17T15:38:34;10.40;;;5.10;;
8268;SDS011;4174;48.304;16.364;2023-08-17T15:44:38;9.43;;;5.20;;
8268;SDS011;4174;48.304;16.364;2023-08-17T15:50:42;10.13;;;5.15;;
8268;SDS011;4174;48.304;16.364;2023-08-17T15:56:49;9.70;;;5.10;;
8268;SDS011;4174;48.304;16.364;2023-08-17T16:02:50;8.02;;;4.10;;
8268;SDS011;4174;48.304;16.364;2023-08-17T16:08:53;7.50;;;3.60;;
8268;SDS011;4174;48.304;16.364;2023-08-17T16:14:58;10.00;;;3.60;;
8268;SDS011;4174;48.304;16.364;2023-08-17T16:21:02;8.53;;;3.80;;
8268;SDS011;4174;48.304;16.364;2023-08-17T16:27:07;7.80;;;3.75;;
8268;SDS011;4174;48.304;16.364;2023-08-17T16:33:10;8.40;;;4.20;;
8268;SDS011;4174;48.304;16.364;2023-08-17T16:39:14;8.50;;;4.43;;
8268;SDS011;4174;48.304;16.364;2023-08-17T16:45:17;9.17;;;4.50;;
8268;SDS011;4174;48.304;16.364;2023-08-17T16:51:21;7.53;;;4.50;;
8268;SDS011;4174;48.304;16.364;2023-08-17T16:57:25;8.45;;;4.40;;
8268;SDS011;4174;48.304;16.364;2023-08-17T17:03:28;8.43;;;4.80;;
8268;SDS011;4174;48.304;16.364;2023-08-17T17:09:32;8.23;;;4.72;;
8268;SDS011;4174;48.304;16.364;2023-08-17T17:15:36;9.87;;;5.10;;
8268;SDS011;4174;48.304;16.364;2023-08-17T17:21:40;22.65;;;12.10;;
8268;SDS011;4174;48.304;16.364;2023-08-17T17:27:44;10.07;;;5.18;;
8268;SDS011;4174;48.304;16.364;2023-08-17T17:33:48;8.63;;;4.93;;
8268;SDS011;4174;48.304;16.364;2023-08-17T17:39:52;18.35;;;10.70;;
8268;SDS011;4174;48.304;16.364;2023-08-17T17:45:56;35.25;;;14.87;;
8268;SDS011;4174;48.304;16.364;2023-08-17T17:52:00;11.00;;;5.03;;
8268;SDS011;4174;48.304;16.364;2023-08-17T17:58:03;10.60;;;6.10;;
8268;SDS011;4174;48.304;16.364;2023-08-17T18:04:06;10.10;;;5.57;;
8268;SDS011;4174;48.304;16.364;2023-08-17T18:10:10;8.80;;;5.30;;
8268;SDS011;4174;48.304;16.364;2023-08-17T18:16:14;10.10;;;5.60;;
8268;SDS011;4174;48.304;16.364;2023-08-17T18:22:19;11.80;;;5.65;;
8268;SDS011;4174;48.304;16.364;2023-08-17T18:28:21;10.18;;;5.85;;
8268;SDS011;4174;48.304;16.364;2023-08-17T18:34:25;11.80;;;7.23;;
8268;SDS011;4174;48.304;16.364;2023-08-17T18:40:29;12.37;;;6.10;;
8268;SDS011;4174;48.304;16.364;2023-08-17T18:46:33;10.37;;;5.80;;
8268;SDS011;4174;48.304;16.364;2023-08-17T18:52:36;10.35;;;5.68;;
8268;SDS011;4174;48.304;16.364;2023-08-17T18:58:40;10.73;;;6.18;;
8268;SDS011;4174;48.304;16.364;2023-08-17T19:04:45;13.37;;;6.50;;
8268;SDS011;4174;48.304;16.364;2023-08-17T19:10:48;11.65;;;6.10;;
8268;SDS011;4174;48.304;16.364;2023-08-17T19:16:51;12.40;;;6.13;;
8268;SDS011;4174;48.304;16.364;2023-08-17T19:22:55;12.13;;;6.40;;
8268;SDS011;4174;48.304;16.364;2023-08-17T19:28:59;12.13;;;6.30;;
8268;SDS011;4174;48.304;16.364;2023-08-17T19:35:02;14.90;;;6.93;;
8268;SDS011;4174;48.304;16.364;2023-08-17T19:41:08;10.53;;;6.43;;
8268;SDS011;4174;48.304;16.364;2023-08-17T19:47:10;10.13;;;6.27;;
8268;SDS011;4174;48.304;16.364;2023-08-17T19:53:14;11.63;;;6.80;;
8268;SDS011;4174;48.304;16.364;2023-08-17T19:59:18;11.93;;;6.50;;
8268;SDS011;4174;48.304;16.364;2023-08-17T20:05:21;11.33;;;6.93;;
8268;SDS011;4174;48.304;16.364;2023-08-17T20:11:25;11.38;;;6.93;;
8268;SDS011;4174;48.304;16.364;2023-08-17T20:17:28;10.87;;;6.70;;
8268;SDS011;4174;48.304;16.364;2023-08-17T20:23:32;10.82;;;6.60;;
8268;SDS011;4174;48.304;16.364;2023-08-17T20:29:35;11.12;;;6.70;;
8268;SDS011;4174;48.304;16.364;2023-08-17T20:35:38;11.83;;;6.60;;
8268;SDS011;4174;48.304;16.364;2023-08-17T20:41:42;13.43;;;6.90;;
8268;SDS011;4174;48.304;16.364;2023-08-17T20:47:45;12.23;;;6.80;;
8268;SDS011;4174;48.304;16.364;2023-08-17T20:53:48;12.43;;;6.90;;
8268;SDS011;4174;48.304;16.364;2023-08-17T20:59:51;11.47;;;6.63;;
8268;SDS011;4174;48.304;16.364;2023-08-17T21:06:01;11.32;;;6.75;;
8268;SDS011;4174;48.304;16.364;2023-08-17T21:12:05;11.38;;;6.43;;
8268;SDS011;4174;48.304;16.364;2023-08-17T21:18:09;11.90;;;6.80;;
8268;SDS011;4174;48.304;16.364;2023-08-17T21:24:13;10.98;;;6.70;;
8268;SDS011;4174;48.304;16.364;2023-08-17T21:30:16;13.97;;;6.77;;
8268;SDS011;4174;48.304;16.364;2023-08-17T21:36:19;13.60;;;7.10;;
8268;SDS011;4174;48.304;16.364;2023-08-17T21:42:23;12.27;;;6.60;;
8268;SDS011;4174;48.304;16.364;2023-08-17T21:48:26;11.83;;;6.40;;
8268;SDS011;4174;48.304;16.364;2023-08-17T21:54:29;12.33;;;6.63;;
8268;SDS011;4174;48.304;16.364;2023-08-17T22:00:33;11.80;;;6.50;;
8268;SDS011;4174;48.304;16.364;2023-08-17T22:06:37;11.38;;;6.32;;
8268;SDS011;4174;48.304;16.364;2023-08-17T22:12:40;11.17;;;6.77;;
8268;SDS011;4174;48.304;16.364;2023-08-17T22:18:44;11.50;;;6.70;;
8268;SDS011;4174;48.304;16.364;2023-08-17T22:24:47;11.27;;;6.93;;
8268;SDS011;4174;48.304;16.364;2023-08-17T22:31:00;10.80;;;6.80;;
8268;SDS011;4174;48.304;16.364;2023-08-17T22:36:54;11.40;;;7.00;;
8268;SDS011;4174;48.304;16.364;2023-08-17T22:42:57;14.10;;;6.78;;
8268;SDS011;4174;48.304;16.364;2023-08-17T22:49:01;11.80;;;6.67;;
8268;SDS011;4174;48.304;16.364;2023-08-17T22:55:05;13.60;;;7.00;;
8268;SDS011;4174;48.304;16.364;2023-08-17T23:01:09;12.93;;;7.30;;
8268;SDS011;4174;48.304;16.364;2023-08-17T23:07:13;13.18;;;7.10;;
8268;SDS011;4174;48.304;16.364;2023-08-17T23:13:16;11.60;;;6.87;;
8268;SDS011;4174;48.304;16.364;2023-08-17T23:19:20;11.95;;;7.25;;
8268;SDS011;4174;48.304;16.364;2023-08-17T23:25:25;12.63;;;7.13;;
8268;SDS011;4174;48.304;16.364;2023-08-17T23:31:26;12.15;;;7.47;;
8268;SDS011;4174;48.304;16.364;2023-08-17T23:37:30;13.53;;;7.40;;
8268;SDS011;4174;48.304;16.364;2023-08-17T23:43:34;13.15;;;7.65;;
8268;SDS011;4174;48.304;16.364;2023-08-17T23:49:37;13.23;;;7.80;;
8268;SDS011;4174;48.304;16.364;2023-08-17T23:55:41;13.43;;;7.60;;
